Time;durP1;ratioP1;P1;durP2;ratioP2;P2;SDS_P1;SDS_P2;PMS_P1;PMS_P2;Temp;Humidity;BMP_temperature;BMP_pressure;BME280_temperature;BME280_humidity;BME280_pressure;Samples;Min_cycle;Max_cycle;Signal;HPM_P1;HPM_P2
2024/03/11 00:02:00;;;;;;;;;13.25;11.25;;;;;10.71;71.50;99438.50;5067938;27;45408;-56
2024/03/11 00:04:25;;;;;;;;;15.00;12.00;;;;;10.71;71.41;99443.72;5065755;27;45534;-58
2024/03/11 00:06:50;;;;;;;;;14.50;12.25;;;;;10.69;71.53;99451.66;5065454;28;48488;-56
2024/03/11 00:09:19;;;;;;;;;11.75;9.00;;;;;10.72;71.13;99461.97;5065888;28;73172;-55
2024/03/11 00:11:55;;;;;;;;;11.50;9.25;;;;;10.70;71.31;99458.59;5065894;28;45458;-56
2024/03/11 00:14:25;;;;;;;;;11.00;10.75;;;;;10.73;71.37;99465.44;5068025;27;45407;-54
2024/03/11 00:16:52;;;;;;;;;10.00;9.00;;;;;10.74;71.24;99469.75;5058264;27;45418;-55
2024/03/11 00:19:17;;;;;;;;;10.00;7.50;;;;;10.75;70.96;99468.84;5066113;27;45621;-57
2024/03/11 00:21:42;;;;;;;;;18.50;11.50;;;;;10.77;70.94;99485.31;5061623;27;68130;-56
2024/03/11 00:24:09;;;;;;;;;15.25;10.75;;;;;10.78;71.13;99487.00;5073266;28;73128;-54
2024/03/11 00:26:35;;;;;;;;;20.00;17.00;;;;;10.79;70.72;99484.31;5067342;28;47340;-56
2024/03/11 00:29:03;;;;;;;;;17.00;11.25;;;;;10.80;70.92;99485.13;5073586;27;45429;-57
2024/03/11 00:31:29;;;;;;;;;13.25;13.25;;;;;10.78;70.44;99485.25;5069408;27;45428;-55
2024/03/11 00:33:55;;;;;;;;;11.25;8.50;;;;;10.79;70.45;99481.69;5084449;27;45718;-55
2024/03/11 00:36:20;;;;;;;;;12.50;12.25;;;;;10.78;70.54;99493.09;5060913;27;75675;-56
2024/03/11 00:38:46;;;;;;;;;15.75;12.25;;;;;10.78;70.23;99487.00;5072456;27;45541;-57
2024/03/11 00:41:12;;;;;;;;;13.00;10.25;;;;;10.77;70.46;99485.31;5075392;27;45488;-56
2024/03/11 00:43:37;;;;;;;;;19.00;15.75;;;;;10.75;70.46;99490.63;5067620;28;45438;-55
2024/03/11 00:46:03;;;;;;;;;15.25;15.25;;;;;10.71;70.02;99485.59;5072113;27;74539;-56
2024/03/11 00:48:28;;;;;;;;;18.25;12.25;;;;;10.68;70.33;99491.81;5073640;27;45425;-55
2024/03/11 00:50:53;;;;;;;;;14.00;12.25;;;;;10.67;70.23;99489.28;5064272;27;62340;-57
2024/03/11 00:53:19;;;;;;;;;15.75;12.00;;;;;10.68;70.48;99493.56;5074221;27;71003;-55
2024/03/11 00:55:44;;;;;;;;;15.75;13.00;;;;;10.66;70.15;99490.19;5074327;27;74853;-53
2024/03/11 00:58:12;;;;;;;;;13.50;12.25;;;;;10.66;70.10;99485.81;5064635;27;72191;-56
2024/03/11 01:00:38;;;;;;;;;14.50;11.00;;;;;10.63;70.23;99484.19;5070732;27;45364;-55
2024/03/11 01:03:03;;;;;;;;;16.25;10.50;;;;;10.59;70.05;99480.03;5071091;27;59052;-57
2024/03/11 01:05:31;;;;;;;;;14.25;12.00;;;;;10.57;70.06;99481.00;5071281;27;46307;-55
2024/03/11 01:07:57;;;;;;;;;13.00;11.25;;;;;10.53;70.71;99495.16;5065620;27;45363;-55
2024/03/11 01:10:22;;;;;;;;;13.75;11.50;;;;;10.49;70.56;99491.84;5079311;27;68307;-54
2024/03/11 01:12:47;;;;;;;;;16.00;8.00;;;;;10.45;70.26;99492.91;5063083;27;45212;-58
2024/03/11 01:15:13;;;;;;;;;12.50;11.75;;;;;10.39;70.34;99488.81;5064782;27;45512;-51
2024/03/11 01:17:39;;;;;;;;;9.00;7.00;;;;;10.36;70.50;99501.19;5075455;27;45233;-56
2024/03/11 01:20:08;;;;;;;;;9.00;9.00;;;;;10.31;70.55;99490.06;5066073;27;45282;-56
2024/03/11 01:22:34;;;;;;;;;16.00;11.00;;;;;10.29;70.80;99491.88;5073877;28;45465;-56
2024/03/11 01:24:59;;;;;;;;;13.25;9.75;;;;;10.26;70.45;99500.72;5074500;27;46379;-54
2024/03/11 01:27:25;;;;;;;;;10.25;9.00;;;;;10.23;70.86;99506.06;5063521;27;73142;-55
2024/03/11 01:29:50;;;;;;;;;11.25;8.50;;;;;10.18;70.57;99508.91;5066128;27;45470;-56
2024/03/11 01:32:16;;;;;;;;;10.50;9.75;;;;;10.14;70.93;99503.88;5074933;27;45418;-55
2024/03/11 01:34:42;;;;;;;;;11.25;9.25;;;;;10.14;70.78;99509.13;5071413;27;46017;-56
2024/03/11 01:37:07;;;;;;;;;10.75;9.00;;;;;10.14;70.93;99515.19;5064296;27;45446;-55
2024/03/11 01:39:42;;;;;;;;;12.00;9.75;;;;;10.13;70.90;99517.84;5073202;27;45963;-56
2024/03/11 01:42:15;;;;;;;;;13.75;11.00;;;;;10.10;70.96;99516.25;5070327;27;45301;-56
2024/03/11 01:44:42;;;;;;;;;11.25;10.00;;;;;10.10;71.27;99513.63;5075445;27;48331;-56
2024/03/11 01:47:08;;;;;;;;;12.00;10.00;;;;;10.11;71.32;99514.47;5059500;28;45866;-55
2024/03/11 01:49:35;;;;;;;;;14.25;8.00;;;;;10.10;71.36;99523.25;5068039;27;45293;-56
2024/03/11 01:52:02;;;;;;;;;9.50;9.25;;;;;10.06;71.43;99514.69;5063834;27;45500;-57
2024/03/11 01:54:28;;;;;;;;;12.00;11.75;;;;;10.02;71.35;99516.59;5070483;27;46189;-56
2024/03/11 01:56:55;;;;;;;;;15.00;11.00;;;;;9.97;71.56;99510.72;5053097;28;45428;-56
2024/03/11 01:59:21;;;;;;;;;12.75;11.00;;;;;9.95;71.60;99514.31;5069494;27;45473;-55
2024/03/11 02:01:47;;;;;;;;;12.75;8.25;;;;;9.90;71.37;99522.34;5057053;28;68671;-55
2024/03/11 02:04:12;;;;;;;;;12.00;10.25;;;;;9.87;71.80;99530.31;5062296;27;45322;-54
2024/03/11 02:06:38;;;;;;;;;14.75;11.00;;;;;9.82;71.65;99527.91;5065092;27;45420;-55
2024/03/11 02:09:07;;;;;;;;;10.25;10.25;;;;;9.79;72.01;99530.66;5074420;27;45274;-54
2024/03/11 02:11:33;;;;;;;;;12.50;11.50;;;;;9.74;71.90;99518.69;5062168;27;45403;-53
2024/03/11 02:13:59;;;;;;;;;12.50;9.00;;;;;9.74;72.20;99523.91;5066605;28;46865;-54
2024/03/11 02:16:24;;;;;;;;;13.00;11.50;;;;;9.69;72.01;99529.34;5066922;27;45488;-54
2024/03/11 02:18:51;;;;;;;;;15.50;10.50;;;;;9.65;72.33;99530.38;5071939;27;45439;-56
2024/03/11 02:21:17;;;;;;;;;10.00;10.00;;;;;9.62;72.40;99539.22;5071857;27;46093;-56
2024/03/11 02:23:42;;;;;;;;;12.00;10.00;;;;;9.59;72.46;99546.31;5065766;27;72922;-56
2024/03/11 02:26:07;;;;;;;;;12.50;11.00;;;;;9.57;72.92;99541.16;5071414;27;45331;-56
2024/03/11 02:28:33;;;;;;;;;11.75;10.00;;;;;9.54;72.84;99543.06;5071095;27;68156;-55
2024/03/11 02:30:58;;;;;;;;;10.50;7.00;;;;;9.52;73.00;99544.88;5071115;28;45401;-55
2024/03/11 02:33:23;;;;;;;;;11.50;8.75;;;;;9.50;73.03;99548.41;5062890;28;70111;-53
2024/03/11 02:35:49;;;;;;;;;16.50;11.50;;;;;9.49;73.22;99549.34;5074916;28;45384;-54
2024/03/11 02:38:14;;;;;;;;;10.75;9.00;;;;;9.49;73.31;99556.28;5071242;27;45513;-59
2024/03/11 02:40:39;;;;;;;;;11.25;10.75;;;;;9.50;73.31;99553.63;5062985;27;45562;-57
2024/03/11 02:43:06;;;;;;;;;10.50;8.25;;;;;9.50;73.39;99558.84;5064571;27;75445;-53
2024/03/11 02:45:32;;;;;;;;;13.25;11.00;;;;;9.50;73.36;99563.22;5074057;28;45218;-55
2024/03/11 02:47:57;;;;;;;;;14.75;12.50;;;;;9.52;73.35;99563.16;5071742;27;69379;-54
2024/03/11 02:50:22;;;;;;;;;10.00;10.00;;;;;9.53;73.47;99560.50;5073484;27;45957;-52
2024/03/11 02:52:48;;;;;;;;;13.50;11.25;;;;;9.57;73.20;99579.50;5051407;28;47554;-55
2024/03/11 02:55:14;;;;;;;;;14.00;10.25;;;;;9.63;73.49;99572.28;5068003;27;45558;-56
2024/03/11 02:57:39;;;;;;;;;10.00;8.25;;;;;9.67;73.33;99578.22;5070256;27;45465;-55
2024/03/11 03:00:10;;;;;;;;;12.00;11.50;;;;;9.71;73.24;99571.09;5062158;28;45982;-55
2024/03/11 03:02:39;;;;;;;;;19.50;10.25;;;;;9.73;73.18;99575.31;5059911;27;47076;-52
2024/03/11 03:05:04;;;;;;;;;14.00;11.00;;;;;9.77;72.91;99576.88;5059215;28;46082;-55
2024/03/11 03:07:30;;;;;;;;;14.50;11.25;;;;;9.81;72.91;99570.63;5063044;27;45359;-54
2024/03/11 03:09:55;;;;;;;;;12.00;11.25;;;;;9.85;72.88;99577.41;5062832;28;71875;-56
2024/03/11 03:12:20;;;;;;;;;19.25;13.00;;;;;9.86;72.38;99580.88;5060690;27;75534;-56
2024/03/11 03:14:46;;;;;;;;;14.25;11.00;;;;;9.88;72.53;99582.53;5065353;28;72204;-55
2024/03/11 03:17:11;;;;;;;;;13.00;11.50;;;;;9.91;72.61;99573.69;5064111;28;54310;-54
2024/03/11 03:19:36;;;;;;;;;14.25;11.50;;;;;9.92;72.24;99578.00;5071026;27;57180;-56
2024/03/11 03:22:02;;;;;;;;;13.25;11.75;;;;;9.94;72.47;99578.78;5071906;27;47405;-51
2024/03/11 03:24:27;;;;;;;;;13.25;10.25;;;;;9.96;72.49;99581.34;5066712;28;45330;-56
2024/03/11 03:26:52;;;;;;;;;14.75;13.00;;;;;9.98;72.46;99574.28;5063617;28;69406;-52
2024/03/11 03:29:18;;;;;;;;;14.50;11.25;;;;;10.00;72.25;99577.66;5072650;27;71915;-55
2024/03/11 03:31:44;;;;;;;;;17.50;11.25;;;;;10.01;72.35;99575.00;5063462;28;45807;-51
2024/03/11 03:34:09;;;;;;;;;13.25;11.50;;;;;10.03;72.01;99575.78;5072101;28;45953;-56
2024/03/11 03:36:35;;;;;;;;;15.50;13.50;;;;;10.07;72.08;99577.38;5059384;28;65629;-55
2024/03/11 03:39:05;;;;;;;;;13.50;12.00;;;;;10.08;71.71;99579.03;5061083;28;45386;-55
2024/03/11 03:41:34;;;;;;;;;17.50;12.50;;;;;10.10;71.93;99581.59;5065703;27;46084;-54
2024/03/11 03:43:59;;;;;;;;;15.75;13.50;;;;;10.12;71.84;99584.16;5070261;28;45352;-54
2024/03/11 03:46:25;;;;;;;;;17.25;11.50;;;;;10.13;71.69;99586.69;5068933;27;69255;-55
2024/03/11 03:48:51;;;;;;;;;16.00;10.75;;;;;10.16;71.82;99583.94;5071736;27;45700;-53
2024/03/11 03:51:18;;;;;;;;;14.75;12.00;;;;;10.17;71.77;99588.25;5066204;27;47012;-54
2024/03/11 03:53:44;;;;;;;;;14.75;13.25;;;;;10.18;71.44;99589.97;5073722;27;45894;-55
2024/03/11 03:56:10;;;;;;;;;18.25;14.00;;;;;10.19;71.60;99593.41;5078529;27;45496;-54
2024/03/11 03:58:36;;;;;;;;;17.00;11.50;;;;;10.19;71.57;99591.66;5066956;27;45431;-56
2024/03/11 04:01:02;;;;;;;;;16.25;12.00;;;;;10.20;71.59;99592.50;5069346;27;46850;-53
2024/03/11 04:03:28;;;;;;;;;12.25;11.25;;;;;10.21;71.37;99595.03;5060412;27;45286;-56
2024/03/11 04:05:54;;;;;;;;;13.25;9.00;;;;;10.22;71.44;99598.53;5061266;27;45469;-56
2024/03/11 04:08:20;;;;;;;;;15.25;10.00;;;;;10.23;70.89;99595.84;5072401;27;45375;-52
2024/03/11 04:10:46;;;;;;;;;11.25;10.00;;;;;10.23;70.97;99594.97;5070867;27;45366;-51
2024/03/11 04:13:12;;;;;;;;;16.00;6.50;;;;;10.24;71.24;99599.28;5070659;27;45337;-55
2024/03/11 04:15:40;;;;;;;;;13.75;12.00;;;;;10.26;71.19;99600.91;5067746;27;45386;-52
2024/03/11 04:18:06;;;;;;;;;11.00;10.00;;;;;10.26;71.25;99600.91;5076301;27;45418;-56
2024/03/11 04:20:31;;;;;;;;;13.50;11.75;;;;;10.26;70.91;99603.53;5065339;27;46820;-55
2024/03/11 04:22:58;;;;;;;;;12.50;9.75;;;;;10.29;70.90;99609.53;5067342;27;73224;-58
2024/03/11 04:25:28;;;;;;;;;10.25;9.25;;;;;10.28;70.47;99611.31;5071002;27;45348;-56
2024/03/11 04:27:55;;;;;;;;;11.25;9.75;;;;;10.29;70.65;99606.91;5069665;27;45610;-54
2024/03/11 04:30:33;;;;;;;;;11.50;6.75;;;;;10.29;70.36;99602.56;5074214;27;46323;-56
2024/03/11 04:32:59;;;;;;;;;9.25;8.00;;;;;10.31;70.38;99616.44;5069779;27;45973;-55
2024/03/11 04:35:29;;;;;;;;;7.00;7.00;;;;;10.32;70.23;99598.97;5071839;27;45633;-56
2024/03/11 04:38:03;;;;;;;;;7.25;4.50;;;;;10.31;69.92;99611.22;5070158;27;45441;-56
2024/03/11 04:40:30;;;;;;;;;8.50;5.50;;;;;10.31;69.69;99607.72;5066265;27;46958;-57
2024/03/11 04:42:56;;;;;;;;;6.00;5.00;;;;;10.30;69.42;99613.84;5077356;27;45798;-55
2024/03/11 04:45:22;;;;;;;;;7.00;5.00;;;;;10.30;69.45;99612.09;5069141;27;46134;-55
2024/03/11 04:47:48;;;;;;;;;8.00;6.25;;;;;10.29;69.59;99610.41;5069662;27;46576;-55
2024/03/11 04:50:20;;;;;;;;;5.00;5.00;;;;;10.31;69.51;99608.59;5072420;27;47882;-56
2024/03/11 04:52:46;;;;;;;;;5.50;5.00;;;;;10.30;69.15;99606.84;5067672;27;45936;-57
2024/03/11 04:55:11;;;;;;;;;4.50;4.50;;;;;10.33;69.41;99613.78;5070521;27;69481;-55
2024/03/11 04:57:36;;;;;;;;;5.00;4.25;;;;;10.30;69.16;99603.41;5070474;27;64392;-57
2024/03/11 05:00:04;;;;;;;;;9.25;4.25;;;;;10.30;69.17;99613.84;5076085;27;46112;-54
2024/03/11 05:02:35;;;;;;;;;6.00;4.25;;;;;10.30;69.05;99609.47;5069908;27;46088;-56
2024/03/11 05:05:00;;;;;;;;;10.00;4.75;;;;;10.27;69.20;99617.47;5068828;28;45431;-55
2024/03/11 05:07:25;;;;;;;;;5.00;5.00;;;;;10.24;69.46;99622.81;5071770;27;47972;-55
2024/03/11 05:09:51;;;;;;;;;7.25;4.00;;;;;10.20;68.95;99624.72;5064671;27;63324;-56
2024/03/11 05:12:16;;;;;;;;;5.25;4.00;;;;;10.15;69.09;99634.53;5074037;27;70870;-55
2024/03/11 05:14:41;;;;;;;;;5.25;4.75;;;;;10.13;69.28;99645.94;5074177;27;69349;-56
2024/03/11 05:17:07;;;;;;;;;6.75;5.00;;;;;10.07;69.55;99644.44;5064550;27;70437;-56
2024/03/11 05:19:32;;;;;;;;;7.00;5.50;;;;;10.03;69.61;99635.06;5072620;27;46353;-56
2024/03/11 05:21:57;;;;;;;;;7.00;5.25;;;;;10.00;69.78;99638.63;5068348;27;70310;-57
2024/03/11 05:24:23;;;;;;;;;7.00;4.50;;;;;9.97;69.74;99644.00;5080988;27;69413;-57
2024/03/11 05:26:49;;;;;;;;;9.25;6.25;;;;;9.95;70.07;99639.75;5067899;27;72232;-56
2024/03/11 05:29:15;;;;;;;;;4.75;3.50;;;;;9.92;69.98;99643.34;5069801;27;47159;-56
2024/03/11 05:31:41;;;;;;;;;6.50;6.25;;;;;9.89;70.07;99646.91;5062983;28;46651;-55
2024/03/11 05:34:06;;;;;;;;;6.75;5.00;;;;;9.86;70.00;99643.59;5066476;27;67030;-58
2024/03/11 05:36:31;;;;;;;;;6.25;5.00;;;;;9.82;70.02;99645.47;5067487;27;70711;-57
2024/03/11 05:38:56;;;;;;;;;5.50;4.00;;;;;9.80;70.31;99649.09;5071410;27;72881;-57
2024/03/11 05:41:22;;;;;;;;;6.75;5.25;;;;;9.79;70.52;99648.25;5068234;27;73304;-55
2024/03/11 05:43:47;;;;;;;;;8.00;6.00;;;;;9.80;70.49;99644.69;5066522;28;67275;-56
2024/03/11 05:46:12;;;;;;;;;7.75;7.25;;;;;9.83;70.70;99662.88;5071593;27;70326;-56
2024/03/11 05:48:39;;;;;;;;;6.75;5.25;;;;;9.83;70.50;99660.25;5064932;27;46976;-56
2024/03/11 05:51:05;;;;;;;;;7.25;5.00;;;;;9.84;70.51;99661.09;5074094;27;46015;-56
2024/03/11 05:53:34;;;;;;;;;7.75;6.00;;;;;9.84;70.79;99664.59;5065110;27;45568;-56
2024/03/11 05:55:59;;;;;;;;;9.75;7.50;;;;;9.87;70.68;99667.06;5072622;27;45531;-57
2024/03/11 05:58:26;;;;;;;;;8.25;5.75;;;;;9.86;70.62;99654.03;5075485;27;46298;-56
2024/03/11 06:00:52;;;;;;;;;7.00;5.50;;;;;9.85;70.57;99654.97;5066502;27;45661;-56
2024/03/11 06:03:18;;;;;;;;;6.00;6.00;;;;;9.84;70.86;99661.09;5074537;27;45425;-57
2024/03/11 06:05:43;;;;;;;;;9.50;8.25;;;;;9.83;70.73;99662.03;5070325;27;45571;-56
2024/03/11 06:08:09;;;;;;;;;8.25;5.75;;;;;9.80;70.61;99665.59;5070899;27;57004;-56
2024/03/11 06:10:35;;;;;;;;;10.00;6.00;;;;;9.80;70.82;99665.59;5073174;27;50219;-56
2024/03/11 06:13:00;;;;;;;;;6.00;6.00;;;;;9.80;70.95;99676.06;5073397;28;45436;-58
2024/03/11 06:15:27;;;;;;;;;6.75;5.25;;;;;9.78;71.24;99677.88;5066342;27;45308;-57
2024/03/11 06:17:53;;;;;;;;;6.50;5.75;;;;;9.78;71.14;99680.50;5071930;28;46723;-56
2024/03/11 06:20:20;;;;;;;;;8.00;4.75;;;;;9.79;70.95;99687.44;5069678;27;45643;-56
2024/03/11 06:22:45;;;;;;;;;8.00;5.75;;;;;9.81;71.00;99684.72;5075005;27;45334;-54
2024/03/11 06:25:11;;;;;;;;;7.00;6.00;;;;;9.82;71.21;99683.84;5064214;27;46276;-55
2024/03/11 06:27:37;;;;;;;;;10.75;6.75;;;;;9.82;71.19;99686.44;5071181;27;46984;-57
2024/03/11 06:30:04;;;;;;;;;8.00;6.00;;;;;9.82;71.01;99692.50;5066267;27;45303;-55
2024/03/11 06:32:30;;;;;;;;;7.50;6.25;;;;;9.80;71.09;99691.72;5066895;27;45604;-52
2024/03/11 06:34:57;;;;;;;;;6.75;6.00;;;;;9.80;70.93;99696.13;5062454;28;45469;-53
2024/03/11 06:37:22;;;;;;;;;5.25;5.25;;;;;9.80;71.11;99696.13;5065528;27;46166;-55
2024/03/11 06:39:47;;;;;;;;;10.25;6.50;;;;;9.82;71.04;99695.13;5068046;27;72016;-56
2024/03/11 06:42:13;;;;;;;;;9.75;7.50;;;;;9.84;70.97;99708.13;5072237;27;69387;-59
2024/03/11 06:44:38;;;;;;;;;12.50;7.00;;;;;9.85;71.07;99721.13;5062003;27;71448;-59
2024/03/11 06:47:04;;;;;;;;;13.00;6.75;;;;;9.88;70.71;99731.47;5067866;28;65361;-61
2024/03/11 06:49:32;;;;;;;;;6.00;5.00;;;;;9.92;70.96;99736.59;5067105;27;45296;-60
2024/03/11 06:51:57;;;;;;;;;6.00;6.00;;;;;9.96;70.63;99740.78;5060481;27;45542;-58
2024/03/11 06:54:22;;;;;;;;;8.50;6.75;;;;;9.97;70.52;99740.72;5070485;28;74169;-59
2024/03/11 06:56:48;;;;;;;;;7.00;5.25;;;;;9.99;70.63;99736.25;5061380;28;75142;-58
2024/03/11 06:59:13;;;;;;;;;11.50;7.00;;;;;10.01;70.36;99747.50;5063984;27;71930;-63
2024/03/11 07:01:39;;;;;;;;;7.75;5.00;;;;;10.04;70.68;99747.38;5060210;28;66494;-62
2024/03/11 07:04:04;;;;;;;;;5.50;4.50;;;;;10.06;70.34;99744.72;5063596;28;45508;-60
2024/03/11 07:06:30;;;;;;;;;4.75;4.75;;;;;10.08;70.51;99751.56;5059571;28;46138;-60
2024/03/11 07:08:55;;;;;;;;;10.50;4.00;;;;;10.14;70.49;99745.22;5068660;27;45528;-59
2024/03/11 07:11:21;;;;;;;;;5.00;4.00;;;;;10.17;70.47;99747.72;5069947;28;69145;-59
2024/03/11 07:13:47;;;;;;;;;5.00;5.00;;;;;10.24;70.37;99750.94;5063356;27;45493;-61
2024/03/11 07:16:12;;;;;;;;;4.00;4.00;;;;;10.31;69.83;99756.78;5062564;28;46220;-58
2024/03/11 07:18:38;;;;;;;;;4.75;4.25;;;;;10.39;69.84;99762.56;5066855;28;45602;-59
2024/03/11 07:21:06;;;;;;;;;6.50;5.50;;;;;10.48;69.15;99766.56;5064122;28;66565;-58
2024/03/11 07:23:33;;;;;;;;;1.25;1.25;;;;;10.54;69.28;99761.91;5071656;27;45276;-59
2024/03/11 07:25:59;;;;;;;;;5.25;4.00;;;;;10.56;68.77;99764.47;5066959;27;47162;-58
2024/03/11 07:28:29;;;;;;;;;6.75;5.00;;;;;10.61;68.45;99767.75;5071002;27;45582;-63
2024/03/11 07:30:55;;;;;;;;;3.00;3.00;;;;;10.65;68.23;99774.53;5066884;28;45363;-60
2024/03/11 07:33:22;;;;;;;;;5.25;3.00;;;;;10.70;68.52;99777.81;5065909;27;45244;-58
2024/03/11 07:35:49;;;;;;;;;8.00;5.00;;;;;10.76;68.28;99777.53;5070212;27;47079;-58
2024/03/11 07:38:15;;;;;;;;;6.75;4.75;;;;;10.81;67.71;99780.81;5062443;27;46081;-58
2024/03/11 07:40:40;;;;;;;;;8.00;5.00;;;;;10.88;68.00;99785.78;5074857;28;45387;-58
2024/03/11 07:43:06;;;;;;;;;6.00;5.50;;;;;10.94;68.03;99789.00;5062450;27;72876;-55
2024/03/11 07:45:37;;;;;;;;;5.00;4.50;;;;;11.02;67.54;99794.72;5069467;27;46146;-59
2024/03/11 07:48:04;;;;;;;;;8.25;4.75;;;;;11.08;66.96;99795.38;5067017;27;46146;-62
2024/03/11 07:50:30;;;;;;;;;3.25;3.25;;;;;11.14;66.95;99802.97;5062519;28;45358;-61
2024/03/11 07:52:56;;;;;;;;;4.00;4.00;;;;;11.19;66.84;99809.72;5062968;27;54990;-63
2024/03/11 07:55:24;;;;;;;;;8.00;3.00;;;;;11.26;66.34;99817.28;5059166;28;46899;-58
2024/03/11 07:57:53;;;;;;;;;8.50;5.00;;;;;11.33;66.47;99818.69;5062725;28;45763;-55
2024/03/11 08:00:18;;;;;;;;;5.25;5.00;;;;;11.42;66.65;99812.19;5069084;28;45442;-57
2024/03/11 08:02:45;;;;;;;;;6.75;5.75;;;;;11.48;66.11;99815.41;5063470;27;45499;-55
2024/03/11 08:05:13;;;;;;;;;5.25;4.00;;;;;11.54;66.35;99822.13;5070097;27;46330;-64
2024/03/11 08:07:40;;;;;;;;;6.25;4.75;;;;;11.58;65.97;99811.44;5066031;27;45824;-60
2024/03/11 08:10:09;;;;;;;;;5.00;4.00;;;;;11.63;65.69;99826.09;5062662;28;45521;-61
2024/03/11 08:12:34;;;;;;;;;4.50;4.00;;;;;11.67;65.43;99830.25;5064644;27;45669;-68
2024/03/11 08:15:01;;;;;;;;;5.25;4.00;;;;;11.73;65.54;99832.63;5068013;28;45919;-68
2024/03/11 08:17:26;;;;;;;;;4.00;3.25;;;;;11.78;65.12;99838.50;5072641;27;45367;-71
2024/03/11 08:19:52;;;;;;;;;3.75;3.00;;;;;11.80;64.99;99844.50;5069120;27;62027;-68
2024/03/11 08:22:17;;;;;;;;;6.00;4.75;;;;;11.85;64.32;99844.31;5086715;27;45446;-69
2024/03/11 08:24:43;;;;;;;;;6.00;4.00;;;;;11.89;64.21;99840.63;5063818;28;72779;-66
2024/03/11 08:27:08;;;;;;;;;3.00;3.00;;;;;11.94;64.27;99841.28;5061529;28;45835;-68
2024/03/11 08:29:34;;;;;;;;;3.25;2.25;;;;;12.01;63.87;99849.72;5070548;27;45486;-67
2024/03/11 08:32:01;;;;;;;;;6.00;4.00;;;;;12.03;63.74;99847.88;5063094;28;45746;-68
2024/03/11 08:34:27;;;;;;;;;4.25;3.00;;;;;12.11;63.64;99856.22;5063427;28;45580;-68
2024/03/11 08:36:53;;;;;;;;;7.00;4.00;;;;;12.14;63.24;99862.16;5076621;28;45363;-64
2024/03/11 08:39:21;;;;;;;;;3.00;2.00;;;;;12.17;63.54;99857.72;5066660;28;45772;-69
2024/03/11 08:41:47;;;;;;;;;3.50;2.00;;;;;12.20;63.31;99863.66;5075264;28;45473;-71
2024/03/11 08:44:14;;;;;;;;;3.00;2.00;;;;;12.19;63.24;99856.69;5065626;28;46973;-69
2024/03/11 08:46:41;;;;;;;;;3.50;2.00;;;;;12.25;63.20;99858.16;5065050;27;45292;-74
2024/03/11 08:49:11;;;;;;;;;5.75;2.75;;;;;12.32;63.01;99862.19;5059191;28;45313;-69
2024/03/11 08:51:36;;;;;;;;;3.25;3.00;;;;;12.37;62.51;99873.31;5059034;28;45375;-71
2024/03/11 08:54:03;;;;;;;;;4.00;2.00;;;;;12.41;62.63;99867.03;5067916;27;46208;-71
2024/03/11 08:56:28;;;;;;;;;3.75;2.00;;;;;12.45;62.86;99881.69;5081016;28;45807;-72
2024/03/11 08:58:53;;;;;;;;;3.00;2.00;;;;;12.51;62.43;99881.38;5076731;28;69258;-69
2024/03/11 09:01:19;;;;;;;;;3.00;2.00;;;;;12.58;62.31;99879.31;5078735;27;45916;-70
2024/03/11 09:03:45;;;;;;;;;3.75;3.00;;;;;12.66;62.17;99885.03;5070937;28;46025;-70
2024/03/11 09:06:10;;;;;;;;;7.75;3.50;;;;;12.76;62.44;99885.41;5067295;27;45220;-68
2024/03/11 09:08:35;;;;;;;;;5.25;3.00;;;;;12.82;61.89;99886.88;5076592;28;71530;-69
2024/03/11 09:11:04;;;;;;;;;4.25;3.00;;;;;12.81;62.12;99883.41;5064030;27;67806;-70
2024/03/11 09:13:29;;;;;;;;;2.50;2.50;;;;;12.91;61.78;99900.41;5062752;28;45619;-67
2024/03/11 09:15:56;;;;;;;;;4.25;3.25;;;;;12.99;61.96;99892.16;5075067;27;45735;-67
2024/03/11 09:18:22;;;;;;;;;4.25;3.75;;;;;13.11;62.08;99902.03;5080382;27;45512;-67
2024/03/11 09:20:49;;;;;;;;;3.25;1.75;;;;;13.10;61.77;99900.34;5071144;27;60924;-68
2024/03/11 09:23:14;;;;;;;;;5.25;2.75;;;;;13.15;61.34;99915.00;5074751;27;45335;-68
2024/03/11 09:25:40;;;;;;;;;4.00;2.50;;;;;13.19;61.13;99909.53;5077575;27;45697;-68
2024/03/11 09:28:08;;;;;;;;;3.25;3.25;;;;;13.17;61.13;99913.16;5063169;27;69326;-67
2024/03/11 09:30:35;;;;;;;;;8.00;4.00;;;;;13.12;60.78;99918.66;5066977;28;45432;-68
2024/03/11 09:33:01;;;;;;;;;8.75;5.50;;;;;13.13;61.26;99917.72;5069776;28;47026;-70
2024/03/11 09:35:28;;;;;;;;;5.50;3.00;;;;;13.14;60.83;99919.44;5077608;27;45403;-69
2024/03/11 09:37:54;;;;;;;;;3.00;3.00;;;;;13.15;60.99;99917.66;5062970;28;45290;-69
2024/03/11 09:40:23;;;;;;;;;2.00;2.00;;;;;13.13;60.92;99928.22;5063061;28;67802;-68
2024/03/11 09:42:49;;;;;;;;;4.25;3.00;;;;;13.12;60.46;99921.28;5074306;27;46255;-70
2024/03/11 09:45:20;;;;;;;;;5.00;2.25;;;;;13.15;61.06;99926.38;5067033;28;45829;-68
2024/03/11 09:47:52;;;;;;;;;3.00;3.00;;;;;13.19;61.17;99930.56;5071245;28;45394;-69
2024/03/11 09:50:26;;;;;;;;;7.00;3.00;;;;;13.20;60.67;99936.66;5075012;28;45569;-69
2024/03/11 09:52:58;;;;;;;;;5.50;2.25;;;;;13.20;60.73;99928.78;5071305;28;46231;-66
2024/03/11 09:55:28;;;;;;;;;3.00;2.25;;;;;13.22;60.98;99935.63;5064358;27;45386;-70
2024/03/11 09:57:55;;;;;;;;;4.75;2.00;;;;;13.19;60.82;99929.69;5060520;28;45415;-69
2024/03/11 10:00:24;;;;;;;;;3.25;2.75;;;;;13.21;60.54;99935.72;5070137;28;45230;-78
2024/03/11 10:02:58;;;;;;;;;5.00;1.75;;;;;13.30;60.60;99933.47;5073075;28;46118;-71
2024/03/11 10:05:24;;;;;;;;;3.75;2.00;;;;;13.41;60.08;99932.94;5073733;28;45832;-72
2024/03/11 10:07:49;;;;;;;;;3.50;1.25;;;;;13.55;59.77;99932.25;5059898;28;45537;-70
2024/03/11 10:10:16;;;;;;;;;2.50;2.00;;;;;13.61;59.34;99952.94;5076631;28;45310;-71
2024/03/11 10:12:58;;;;;;;;;5.50;2.00;;;;;13.64;59.14;99949.31;5077876;28;46852;-69
2024/03/11 10:15:29;;;;;;;;;3.00;2.25;;;;;13.66;58.78;99950.09;5071469;28;45359;-71
2024/03/11 10:18:01;;;;;;;;;7.00;6.00;;;;;13.70;59.20;99951.59;5082267;28;45462;-72
2024/03/11 10:20:34;;;;;;;;;2.25;2.00;;;;;13.78;58.50;99959.13;5096880;27;45540;-72
2024/03/11 10:23:09;;;;;;;;;2.00;2.00;;;;;13.83;58.50;99957.94;5064481;27;46221;-70
2024/03/11 10:25:35;;;;;;;;;2.00;2.00;;;;;13.84;58.13;99953.50;5066449;27;45453;-70
2024/03/11 10:28:04;;;;;;;;;3.50;2.00;;;;;13.91;58.37;99957.50;5068410;28;45926;-72
2024/03/11 10:30:31;;;;;;;;;2.25;2.00;;;;;13.99;57.87;99951.88;5071429;27;45311;-71
2024/03/11 10:32:58;;;;;;;;;1.50;1.50;;;;;14.08;57.64;99948.72;5090821;27;47177;-68
2024/03/11 10:35:26;;;;;;;;;3.25;3.25;;;;;14.14;58.02;99952.81;5067329;27;45387;-76
2024/03/11 10:37:52;;;;;;;;;4.00;2.00;;;;;14.26;57.61;99957.41;5068289;27;45287;-76
2024/03/11 10:40:18;;;;;;;;;5.25;1.00;;;;;14.33;57.31;99950.03;5067224;27;45583;-74
2024/03/11 10:42:53;;;;;;;;;4.75;1.75;;;;;14.46;56.91;99961.56;5067621;27;46186;-69
2024/03/11 10:45:30;;;;;;;;;7.50;1.50;;;;;14.60;57.04;99955.56;5065850;28;45395;-75
2024/03/11 10:48:00;;;;;;;;;5.00;2.00;;;;;14.71;56.79;99960.22;5076044;27;45282;-72
2024/03/11 10:50:28;;;;;;;;;3.00;1.25;;;;;14.84;56.31;99960.34;5073219;27;45521;-77
2024/03/11 10:52:57;;;;;;;;;10.00;6.50;;;;;14.95;56.29;99960.59;5071393;27;46343;-70
2024/03/11 10:55:25;;;;;;;;;16.00;11.00;;;;;15.08;56.22;99966.00;5061434;27;45414;-72
2024/03/11 10:57:52;;;;;;;;;4.25;3.50;;;;;15.25;55.93;99968.50;5071571;27;45330;-69
2024/03/11 11:00:19;;;;;;;;;3.75;2.00;;;;;15.40;55.30;99973.81;5072807;27;45164;-64
2024/03/11 11:02:50;;;;;;;;;2.50;2.50;;;;;15.45;55.05;99972.59;5076113;27;46004;-62
2024/03/11 11:05:24;;;;;;;;;2.25;2.00;;;;;15.63;54.85;99978.56;5078870;27;45542;-62
2024/03/11 11:07:52;;;;;;;;;2.75;2.00;;;;;15.78;54.36;99968.91;5082674;27;45437;-61
2024/03/11 11:10:17;;;;;;;;;4.25;2.00;;;;;15.89;54.26;99969.09;5074340;27;45633;-62
2024/03/11 11:12:43;;;;;;;;;3.75;1.25;;;;;15.93;54.06;99962.66;5061983;27;61203;-61
2024/03/11 11:15:12;;;;;;;;;3.75;2.00;;;;;15.92;53.81;99958.34;5070553;27;45280;-62
2024/03/11 11:17:39;;;;;;;;;3.50;1.25;;;;;15.84;53.72;99965.88;5074056;28;45408;-61
2024/03/11 11:22:54;;;;;;;;;2.75;2.25;;;;;15.50;53.73;99964.41;5073119;28;45673;-61
2024/03/11 11:25:42;;;;;;;;;4.00;2.00;;;;;15.29;53.54;99972.66;5074227;27;45765;-61
2024/03/11 11:28:15;;;;;;;;;4.50;3.00;;;;;15.04;54.01;99970.59;5073595;27;45286;-62
2024/03/11 11:30:43;;;;;;;;;4.00;1.00;;;;;14.93;54.46;99975.66;5065179;28;45376;-61